createdAt,value
2019-03-05T00:00:35.275Z,99116.44
2019-03-05T00:05:38.697Z,99118.92
2019-03-05T00:10:42.130Z,99113.86
2019-03-05T00:15:46.704Z,99119.72
2019-03-05T00:20:50.711Z,99121.66
2019-03-05T00:25:54.143Z,99125.02
2019-03-05T00:31:10.045Z,99121.12
2019-03-05T00:36:34.528Z,99138.28
2019-03-05T00:41:55.810Z,99133.88
2019-03-05T00:47:10.814Z,99129.95
2019-03-05T00:52:23.313Z,99142.36
2019-03-05T00:57:48.000Z,99155.23
2019-03-05T01:03:17.092Z,99165.10
2019-03-05T01:08:20.512Z,99160.33
2019-03-05T01:13:24.456Z,99159.80
2019-03-05T01:18:27.892Z,99164.66
2019-03-05T01:23:31.376Z,99172.55
2019-03-05T01:28:34.863Z,99182.22
2019-03-05T01:33:40.105Z,99185.37
2019-03-05T01:38:45.225Z,99194.32
2019-03-05T01:43:48.688Z,99198.25
2019-03-05T01:48:52.180Z,99208.56
2019-03-05T01:53:55.575Z,99212.85
2019-03-05T01:58:59.008Z,99224.23
2019-03-05T02:04:02.929Z,99230.63
2019-03-05T02:09:08.033Z,99222.41
2019-03-05T02:14:11.521Z,99224.06
2019-03-05T02:19:34.119Z,99227.02
2019-03-05T02:24:58.659Z,99220.55
2019-03-05T02:30:08.090Z,99216.37
2019-03-05T02:35:20.347Z,99234.03
2019-03-05T02:40:42.143Z,99237.47
2019-03-05T02:45:56.857Z,99234.92
2019-03-05T02:51:11.688Z,99233.38
2019-03-05T02:56:26.770Z,99237.18
2019-03-05T03:01:31.849Z,99226.45
2019-03-05T03:06:35.360Z,99231.07
2019-03-05T03:11:38.779Z,99234.19
2019-03-05T03:16:42.184Z,99238.16
2019-03-05T03:21:45.602Z,99239.00
2019-03-05T03:26:49.030Z,99251.22
2019-03-05T03:31:52.491Z,99251.17
2019-03-05T03:36:55.889Z,99277.66
2019-03-05T03:41:59.299Z,99294.64
2019-03-05T03:47:02.741Z,99281.84
2019-03-05T03:52:06.261Z,99294.57
2019-03-05T03:57:09.735Z,99301.14
2019-03-05T04:02:13.180Z,99305.36
2019-03-05T04:07:16.597Z,99313.98
2019-03-05T04:12:20.035Z,99317.80
2019-03-05T04:17:23.701Z,99306.16
2019-03-05T04:22:27.137Z,99303.61
2019-03-05T04:27:30.558Z,99309.72
2019-03-05T04:32:33.967Z,99302.36
2019-03-05T04:37:37.397Z,99308.88
2019-03-05T04:42:40.822Z,99317.05
2019-03-05T04:47:44.246Z,99321.71
2019-03-05T04:52:47.653Z,99317.02
2019-03-05T04:57:51.059Z,99326.84
2019-03-05T05:02:54.481Z,99327.20
2019-03-05T05:07:57.896Z,99331.52
2019-03-05T05:13:01.315Z,99337.46
2019-03-05T05:18:05.172Z,99331.44
2019-03-05T05:23:08.602Z,99334.47
2019-03-05T05:28:12.029Z,99348.53
2019-03-05T05:33:15.625Z,99345.53
2019-03-05T05:38:19.054Z,99346.72
2019-03-05T05:43:25.464Z,99358.36
2019-03-05T05:48:28.922Z,99350.50
2019-03-05T05:53:32.339Z,99342.75
2019-03-05T05:58:35.773Z,99344.04
2019-03-05T06:03:39.195Z,99348.27
2019-03-05T06:08:42.626Z,99345.27
2019-03-05T06:13:46.031Z,99347.51
2019-03-05T06:18:49.461Z,99356.04
2019-03-05T06:23:52.896Z,99366.83
2019-03-05T06:28:56.336Z,99359.45
2019-03-05T06:33:59.757Z,99361.16
2019-03-05T06:39:03.861Z,99367.60
2019-03-05T06:44:09.363Z,99367.91
2019-03-05T06:49:12.501Z,99379.08
2019-03-05T06:54:15.923Z,99370.74
2019-03-05T06:59:19.329Z,99370.88
2019-03-05T07:04:22.741Z,99369.53
2019-03-05T07:09:41.155Z,99373.05
2019-03-05T07:14:53.708Z,99379.80
2019-03-05T07:20:30.166Z,99385.83
2019-03-05T07:25:33.581Z,99394.81
2019-03-05T07:30:37.006Z,99409.95
2019-03-05T07:35:40.546Z,99414.22
2019-03-05T07:40:43.996Z,99416.42
2019-03-05T07:45:47.449Z,99426.41
2019-03-05T07:50:50.883Z,99424.28
2019-03-05T07:55:54.301Z,99433.33
2019-03-05T08:00:57.783Z,99442.72
2019-03-05T08:06:01.223Z,99450.82
2019-03-05T08:11:04.711Z,99461.58
2019-03-05T08:16:09.966Z,99456.82
2019-03-05T08:21:13.394Z,99457.75
2019-03-05T08:26:16.887Z,99469.42
2019-03-05T08:31:20.736Z,99480.39
2019-03-05T08:36:24.272Z,99485.22
2019-03-05T08:41:27.697Z,99487.88
2019-03-05T08:46:31.211Z,99497.70
2019-03-05T08:51:34.731Z,99497.09
2019-03-05T08:56:38.283Z,99497.83
2019-03-05T09:01:41.710Z,99511.28
2019-03-05T09:06:45.275Z,99526.53
2019-03-05T09:11:48.770Z,99538.78
2019-03-05T09:16:52.192Z,99540.93
2019-03-05T09:21:55.671Z,99549.05
2019-03-05T09:26:59.074Z,99543.05
2019-03-05T09:32:02.506Z,99553.16
2019-03-05T09:37:05.996Z,99563.59
2019-03-05T09:42:09.578Z,99563.66
2019-03-05T09:47:13.109Z,99571.64
2019-03-05T09:52:16.612Z,99571.84
2019-03-05T09:57:20.013Z,99579.55
2019-03-05T10:02:25.093Z,99597.90
2019-03-05T10:07:28.493Z,99588.30
2019-03-05T10:12:31.991Z,99591.69
2019-03-05T10:17:38.120Z,99595.66
2019-03-05T10:22:40.591Z,99593.67
2019-03-05T10:27:44.125Z,99599.35
2019-03-05T10:32:48.596Z,99605.63
2019-03-05T10:37:53.254Z,99614.05
2019-03-05T10:43:07.800Z,99615.92
2019-03-05T10:48:01.916Z,99604.08
2019-03-05T10:53:05.525Z,99619.02
2019-03-05T10:58:09.185Z,99617.52
2019-03-05T11:03:13.238Z,99627.87
2019-03-05T11:08:23.121Z,99639.58
2019-03-05T11:13:26.550Z,99633.41
2019-03-05T11:18:30.215Z,99632.20
2019-03-05T11:23:33.790Z,99641.30
2019-03-05T11:28:37.229Z,99637.67
2019-03-05T11:33:40.658Z,99639.05
2019-03-05T11:38:44.156Z,99644.74
2019-03-05T11:43:47.637Z,99652.19
2019-03-05T11:48:51.144Z,99652.77
2019-03-05T11:53:54.546Z,99660.70
2019-03-05T11:58:58.067Z,99668.77
2019-03-05T12:04:01.491Z,99668.66
2019-03-05T12:09:06.455Z,99673.52
2019-03-05T12:14:09.949Z,99681.89
2019-03-05T12:19:13.647Z,99684.69
2019-03-05T12:24:19.907Z,99691.73
2019-03-05T12:29:22.239Z,99687.89
2019-03-05T12:34:25.661Z,99695.08
2019-03-05T12:39:29.068Z,99700.16
2019-03-05T12:44:32.490Z,99707.70
2019-03-05T12:49:35.897Z,99702.01
2019-03-05T12:54:39.344Z,99706.27
2019-03-05T12:59:42.770Z,99720.86
2019-03-05T13:04:46.184Z,99716.84
2019-03-05T13:09:52.537Z,99726.56
2019-03-05T13:14:54.752Z,99742.37
2019-03-05T13:19:58.155Z,99735.11
2019-03-05T13:25:01.575Z,99738.59
2019-03-05T13:30:10.377Z,99748.03
2019-03-05T13:35:15.249Z,99746.74
2019-03-05T13:40:20.835Z,99754.08
2019-03-05T13:45:25.810Z,99749.31
2019-03-05T13:50:32.264Z,99748.94
2019-03-05T13:56:04.072Z,99746.88
2019-03-05T14:01:10.045Z,99760.35
2019-03-05T14:06:19.566Z,99759.58
2019-03-05T14:11:23.234Z,99761.64
2019-03-05T14:16:26.628Z,99768.03
2019-03-05T14:21:30.148Z,99770.07
2019-03-05T14:26:33.597Z,99768.66
2019-03-05T14:31:37.129Z,99761.69
2019-03-05T14:36:40.548Z,99758.34
2019-03-05T14:41:44.127Z,99771.80
2019-03-05T14:46:50.612Z,99777.20
2019-03-05T14:51:54.028Z,99782.52
2019-03-05T14:56:57.467Z,99791.08
2019-03-05T15:02:02.317Z,99791.37
2019-03-05T15:07:06.122Z,99792.63
2019-03-05T15:12:09.655Z,99797.83
2019-03-05T15:17:13.059Z,99803.55
2019-03-05T15:22:16.476Z,99797.64
2019-03-05T15:27:19.968Z,99803.11
2019-03-05T15:32:23.421Z,99804.19
2019-03-05T15:37:26.807Z,99809.17
2019-03-05T15:42:30.271Z,99813.33
2019-03-05T15:47:33.687Z,99811.64
2019-03-05T15:52:37.166Z,99821.27
2019-03-05T15:57:40.561Z,99830.65
2019-03-05T16:02:43.953Z,99833.36
2019-03-05T16:07:48.012Z,99836.67
2019-03-05T16:12:51.702Z,99844.17
2019-03-05T16:17:55.116Z,99838.33
2019-03-05T16:22:58.529Z,99834.73
2019-03-05T16:28:05.713Z,99854.18
2019-03-05T16:33:08.777Z,99858.12
2019-03-05T16:38:26.066Z,99866.31
2019-03-05T16:43:31.129Z,99871.70
2019-03-05T16:53:54.883Z,99888.95
2019-03-05T16:59:05.707Z,99883.55
2019-03-05T17:04:22.351Z,99901.71
2019-03-05T17:09:42.495Z,99902.48
2019-03-05T17:14:46.587Z,99919.64
2019-03-05T17:19:50.006Z,99935.13
2019-03-05T17:24:53.535Z,99941.31
2019-03-05T17:29:56.982Z,99944.63
2019-03-05T17:35:00.401Z,99949.69
2019-03-05T17:40:04.491Z,99965.52
2019-03-05T17:45:10.963Z,99972.56
2019-03-05T17:50:14.717Z,99980.15
2019-03-05T17:55:26.269Z,99988.56
2019-03-05T18:00:31.039Z,100006.00
2019-03-05T18:05:34.452Z,100004.43
2019-03-05T18:10:37.856Z,100004.17
2019-03-05T18:15:41.292Z,100009.84
2019-03-05T18:20:44.876Z,100014.72
2019-03-05T18:25:48.282Z,100026.46
2019-03-05T18:30:51.760Z,100038.20
2019-03-05T18:35:55.200Z,100041.30
2019-03-05T18:40:58.691Z,100047.83
2019-03-05T18:46:02.126Z,100047.89
2019-03-05T18:51:05.614Z,100051.39
2019-03-05T18:56:09.108Z,100058.74
2019-03-05T19:01:12.596Z,100054.91
2019-03-05T19:06:16.021Z,100065.71
2019-03-05T19:11:19.434Z,100065.25
2019-03-05T19:16:22.958Z,100058.36
2019-03-05T19:21:26.467Z,100062.71
2019-03-05T19:26:30.814Z,100065.73
2019-03-05T19:31:34.238Z,100060.98
2019-03-05T19:36:37.655Z,100073.90
2019-03-05T19:41:41.093Z,100080.78
2019-03-05T19:46:44.521Z,100086.84
2019-03-05T19:51:47.932Z,100094.14
2019-03-05T19:56:51.343Z,100099.73
2019-03-05T20:01:54.758Z,100099.73
2019-03-05T20:06:58.180Z,100097.56
2019-03-05T20:12:01.613Z,100101.04
2019-03-05T20:17:05.030Z,100104.89
2019-03-05T20:22:08.717Z,100103.61
2019-03-05T20:27:16.061Z,100104.47
2019-03-05T20:32:17.284Z,100107.01
2019-03-05T20:37:20.714Z,100112.19
2019-03-05T20:42:24.130Z,100108.31
2019-03-05T20:47:27.624Z,100109.17
2019-03-05T20:52:31.027Z,100122.53
2019-03-05T20:57:34.445Z,100126.85
2019-03-05T21:02:37.842Z,100125.98
2019-03-05T21:07:41.291Z,100126.00
2019-03-05T21:12:44.700Z,100135.03
2019-03-05T21:17:50.369Z,100133.30
2019-03-05T21:22:54.070Z,100139.35
2019-03-05T21:27:57.491Z,100149.66
2019-03-05T21:33:00.907Z,100144.48
2019-03-05T21:38:04.470Z,100148.33
2019-03-05T21:43:07.998Z,100151.36
2019-03-05T21:48:11.532Z,100154.33
2019-03-05T21:53:15.559Z,100159.92
2019-03-05T21:58:20.792Z,100155.19
2019-03-05T22:03:24.386Z,100163.80
2019-03-05T22:08:27.833Z,100165.92
2019-03-05T22:13:31.323Z,100168.05
2019-03-05T22:18:34.766Z,100160.71
2019-03-05T22:23:38.253Z,100160.68
2019-03-05T22:28:41.769Z,100173.19
2019-03-05T22:33:45.198Z,100174.91
2019-03-05T22:38:48.677Z,100179.16
2019-03-05T22:43:52.123Z,100177.40
2019-03-05T22:48:55.568Z,100177.44
2019-03-05T22:53:58.983Z,100180.84
2019-03-05T22:59:02.408Z,100173.95
2019-03-05T23:04:06.375Z,100181.23
2019-03-05T23:09:12.108Z,100172.23
2019-03-05T23:14:15.591Z,100172.63
2019-03-05T23:19:19.121Z,100176.04
2019-03-05T23:24:22.936Z,100177.36
2019-03-05T23:29:28.094Z,100172.17
2019-03-05T23:34:31.509Z,100165.29
2019-03-05T23:39:34.912Z,100168.73
2019-03-05T23:44:38.351Z,100173.03
2019-03-05T23:49:41.845Z,100162.28
2019-03-05T23:54:45.322Z,100168.73
2019-03-05T23:59:48.735Z,100160.55
